TimeCST,TemperatureF,Dew PointF,Humidity,Sea Level PressureIn,VisibilityMPH,Wind Direction,Wind SpeedMPH,Gust SpeedMPH,PrecipitationIn,Events,Conditions,WindDirDegrees,DateUTC
12:53 AM,9.0,3.0,77,30.09,10.0,SSW,12.7,-,N/A,,Clear,210,2013-01-25 06:53:00
1:44 AM,10.4,3.2,73,29.97,10.0,SW,11.5,-,N/A,,Mostly Cloudy,220,2013-01-25 07:44:00
1:53 AM,10.0,3.9,76,30.09,10.0,SW,11.5,-,N/A,,Overcast,220,2013-01-25 07:53:00
2:53 AM,12.0,6.1,77,30.08,10.0,WSW,10.4,-,N/A,,Overcast,250,2013-01-25 08:53:00
3:53 AM,14.0,8.1,77,30.08,10.0,West,12.7,-,N/A,,Overcast,270,2013-01-25 09:53:00
4:53 AM,16.0,10.9,81,30.06,10.0,West,12.7,-,N/A,,Overcast,270,2013-01-25 10:53:00
5:53 AM,19.0,15.1,85,30.05,10.0,NW,11.5,-,N/A,,Overcast,310,2013-01-25 11:53:00
6:53 AM,19.9,16.0,85,30.08,10.0,WNW,12.7,-,N/A,,Overcast,300,2013-01-25 12:53:00
7:53 AM,19.0,15.1,85,30.11,10.0,NW,18.4,-,N/A,,Overcast,320,2013-01-25 13:53:00
8:53 AM,17.1,12.9,84,30.13,9.0,NW,26.5,32.2,N/A,,Overcast,320,2013-01-25 14:53:00
9:24 AM,15.8,10.4,79,30.04,4.0,NNW,23.0,32.2,0.00,Snow,Light Snow,340,2013-01-25 15:24:00
9:53 AM,12.9,7.0,77,30.16,9.0,NNW,23.0,32.2,0.00,,Mostly Cloudy,330,2013-01-25 15:53:00
10:03 AM,12.2,6.8,79,30.07,10.0,NNW,24.2,32.2,N/A,,Scattered Clouds,330,2013-01-25 16:03:00
10:53 AM,9.0,-0.0,67,30.21,10.0,NNW,24.2,32.2,N/A,,Clear,330,2013-01-25 16:53:00
11:53 AM,8.1,-2.0,64,30.23,10.0,NNW,19.6,-,N/A,,Clear,330,2013-01-25 17:53:00
12:53 PM,8.1,-0.9,67,30.24,10.0,NNW,18.4,-,N/A,,Clear,330,2013-01-25 18:53:00
1:53 PM,8.1,-2.0,64,30.25,10.0,NNW,18.4,25.3,N/A,,Clear,330,2013-01-25 19:53:00
2:53 PM,7.0,-2.0,67,30.25,10.0,North,12.7,-,N/A,,Clear,350,2013-01-25 20:53:00
3:53 PM,6.1,-4.0,63,30.27,10.0,North,12.7,-,N/A,,Clear,350,2013-01-25 21:53:00
4:53 PM,5.0,-4.0,66,30.28,10.0,North,9.2,-,N/A,,Clear,350,2013-01-25 22:53:00
5:53 PM,1.9,-5.1,72,30.30,10.0,North,6.9,-,N/A,,Clear,360,2013-01-25 23:53:00
6:53 PM,1.0,-6.0,72,30.30,10.0,NNE,8.1,-,N/A,,Clear,30,2013-01-26 00:53:00
7:53 PM,-0.9,-7.1,75,30.32,10.0,NNE,4.6,-,N/A,,Clear,30,2013-01-26 01:53:00
8:53 PM,-0.0,-7.1,72,30.32,10.0,Calm,Calm,-,N/A,,Clear,0,2013-01-26 02:53:00
9:53 PM,-0.0,-7.1,72,30.32,10.0,Calm,Calm,-,N/A,,Clear,0,2013-01-26 03:53:00
10:53 PM,-0.0,-6.0,76,30.32,10.0,Calm,Calm,-,N/A,,Clear,0,2013-01-26 04:53:00
11:53 PM,-0.0,-6.0,76,30.34,10.0,Calm,Calm,-,N/A,,Clear,0,2013-01-26 05:53:00